sensor_id;sensor_type;location;lat;lon;timestamp;P1;durP1;ratioP1;P2;durP2;ratioP2
40669;SDS011;26355;45.528;9.234;2023-04-07T00:00:25;22.80;;;12.10;;
40669;SDS011;26355;45.528;9.234;2023-04-07T00:02:51;21.63;;;11.27;;
40669;SDS011;26355;45.528;9.234;2023-04-07T00:05:17;24.80;;;11.70;;
40669;SDS011;26355;45.528;9.234;2023-04-07T00:07:43;22.13;;;10.65;;
40669;SDS011;26355;45.528;9.234;2023-04-07T00:10:08;23.17;;;11.05;;
40669;SDS011;26355;45.528;9.234;2023-04-07T00:12:34;21.83;;;10.48;;
40669;SDS011;26355;45.528;9.234;2023-04-07T00:15:00;22.70;;;10.10;;
40669;SDS011;26355;45.528;9.234;2023-04-07T00:17:26;21.58;;;11.23;;
40669;SDS011;26355;45.528;9.234;2023-04-07T00:19:51;24.13;;;11.05;;
40669;SDS011;26355;45.528;9.234;2023-04-07T00:22:17;24.50;;;10.32;;
40669;SDS011;26355;45.528;9.234;2023-04-07T00:24:42;22.17;;;10.88;;
40669;SDS011;26355;45.528;9.234;2023-04-07T00:27:08;22.02;;;10.00;;
40669;SDS011;26355;45.528;9.234;2023-04-07T00:29:34;22.80;;;10.57;;
40669;SDS011;26355;45.528;9.234;2023-04-07T00:31:59;22.63;;;10.10;;
40669;SDS011;26355;45.528;9.234;2023-04-07T00:34:25;23.70;;;10.70;;
40669;SDS011;26355;45.528;9.234;2023-04-07T00:36:51;23.63;;;10.32;;
40669;SDS011;26355;45.528;9.234;2023-04-07T00:39:17;20.45;;;9.68;;
40669;SDS011;26355;45.528;9.234;2023-04-07T00:41:43;22.58;;;10.70;;
40669;SDS011;26355;45.528;9.234;2023-04-07T00:44:09;21.27;;;10.38;;
40669;SDS011;26355;45.528;9.234;2023-04-07T00:46:35;20.33;;;9.40;;
40669;SDS011;26355;45.528;9.234;2023-04-07T00:49:01;21.35;;;9.50;;
40669;SDS011;26355;45.528;9.234;2023-04-07T00:51:26;19.17;;;8.73;;
40669;SDS011;26355;45.528;9.234;2023-04-07T00:53:53;19.15;;;8.55;;
40669;SDS011;26355;45.528;9.234;2023-04-07T00:56:19;22.03;;;9.50;;
40669;SDS011;26355;45.528;9.234;2023-04-07T00:58:45;18.17;;;8.43;;
40669;SDS011;26355;45.528;9.234;2023-04-07T01:01:12;18.90;;;8.57;;
40669;SDS011;26355;45.528;9.234;2023-04-07T01:06:22;18.85;;;7.90;;
40669;SDS011;26355;45.528;9.234;2023-04-07T01:08:53;18.77;;;8.60;;
40669;SDS011;26355;45.528;9.234;2023-04-07T01:11:29;19.20;;;9.02;;
40669;SDS011;26355;45.528;9.234;2023-04-07T01:14:01;20.05;;;8.98;;
40669;SDS011;26355;45.528;9.234;2023-04-07T01:19:00;20.80;;;9.32;;
40669;SDS011;26355;45.528;9.234;2023-04-07T01:21:37;21.75;;;8.70;;
40669;SDS011;26355;45.528;9.234;2023-04-07T01:24:23;18.70;;;8.45;;
40669;SDS011;26355;45.528;9.234;2023-04-07T01:27:14;17.23;;;7.78;;
40669;SDS011;26355;45.528;9.234;2023-04-07T01:30:06;19.70;;;7.78;;
40669;SDS011;26355;45.528;9.234;2023-04-07T01:32:34;17.65;;;8.23;;
40669;SDS011;26355;45.528;9.234;2023-04-07T01:35:02;16.88;;;7.78;;
40669;SDS011;26355;45.528;9.234;2023-04-07T01:37:28;18.20;;;7.22;;
40669;SDS011;26355;45.528;9.234;2023-04-07T01:39:55;18.15;;;7.45;;
40669;SDS011;26355;45.528;9.234;2023-04-07T01:42:21;19.52;;;8.18;;
40669;SDS011;26355;45.528;9.234;2023-04-07T01:44:47;18.17;;;7.80;;
40669;SDS011;26355;45.528;9.234;2023-04-07T01:47:13;17.73;;;7.97;;
40669;SDS011;26355;45.528;9.234;2023-04-07T01:49:40;18.13;;;8.10;;
40669;SDS011;26355;45.528;9.234;2023-04-07T01:52:07;18.02;;;7.63;;
40669;SDS011;26355;45.528;9.234;2023-04-07T01:54:34;19.33;;;8.80;;
40669;SDS011;26355;45.528;9.234;2023-04-07T01:57:01;17.88;;;7.30;;
40669;SDS011;26355;45.528;9.234;2023-04-07T01:59:27;18.17;;;8.23;;
40669;SDS011;26355;45.528;9.234;2023-04-07T02:01:52;20.23;;;8.10;;
40669;SDS011;26355;45.528;9.234;2023-04-07T02:04:27;20.27;;;7.70;;
40669;SDS011;26355;45.528;9.234;2023-04-07T02:06:58;17.35;;;7.43;;
40669;SDS011;26355;45.528;9.234;2023-04-07T02:09:29;18.75;;;7.88;;
40669;SDS011;26355;45.528;9.234;2023-04-07T02:11:56;18.63;;;8.20;;
40669;SDS011;26355;45.528;9.234;2023-04-07T02:14:24;18.95;;;7.63;;
40669;SDS011;26355;45.528;9.234;2023-04-07T02:16:51;16.35;;;7.28;;
40669;SDS011;26355;45.528;9.234;2023-04-07T02:21:44;18.73;;;7.03;;
40669;SDS011;26355;45.528;9.234;2023-04-07T02:24:12;19.73;;;8.73;;
40669;SDS011;26355;45.528;9.234;2023-04-07T02:26:38;16.90;;;7.40;;
40669;SDS011;26355;45.528;9.234;2023-04-07T02:29:03;18.80;;;8.07;;
40669;SDS011;26355;45.528;9.234;2023-04-07T02:31:29;19.17;;;8.27;;
40669;SDS011;26355;45.528;9.234;2023-04-07T02:33:56;20.13;;;8.60;;
40669;SDS011;26355;45.528;9.234;2023-04-07T02:36:21;17.63;;;8.50;;
40669;SDS011;26355;45.528;9.234;2023-04-07T02:38:48;18.25;;;8.15;;
40669;SDS011;26355;45.528;9.234;2023-04-07T02:41:13;19.98;;;9.40;;
40669;SDS011;26355;45.528;9.234;2023-04-07T02:43:39;21.10;;;8.70;;
40669;SDS011;26355;45.528;9.234;2023-04-07T02:46:04;20.15;;;9.02;;
40669;SDS011;26355;45.528;9.234;2023-04-07T02:48:30;20.70;;;9.20;;
40669;SDS011;26355;45.528;9.234;2023-04-07T02:50:56;19.20;;;8.85;;
40669;SDS011;26355;45.528;9.234;2023-04-07T02:53:23;20.25;;;8.85;;
40669;SDS011;26355;45.528;9.234;2023-04-07T02:55:48;19.35;;;9.52;;
40669;SDS011;26355;45.528;9.234;2023-04-07T02:58:14;22.70;;;9.63;;
40669;SDS011;26355;45.528;9.234;2023-04-07T03:00:40;21.25;;;10.30;;
40669;SDS011;26355;45.528;9.234;2023-04-07T03:03:05;22.83;;;10.85;;
40669;SDS011;26355;45.528;9.234;2023-04-07T03:05:31;19.27;;;10.50;;
40669;SDS011;26355;45.528;9.234;2023-04-07T03:07:57;25.13;;;11.30;;
40669;SDS011;26355;45.528;9.234;2023-04-07T03:10:22;25.80;;;12.15;;
40669;SDS011;26355;45.528;9.234;2023-04-07T03:12:48;22.25;;;11.48;;
40669;SDS011;26355;45.528;9.234;2023-04-07T03:15:13;27.55;;;13.18;;
40669;SDS011;26355;45.528;9.234;2023-04-07T03:17:39;22.10;;;12.57;;
40669;SDS011;26355;45.528;9.234;2023-04-07T03:20:05;25.30;;;13.80;;
40669;SDS011;26355;45.528;9.234;2023-04-07T03:22:31;29.25;;;14.68;;
40669;SDS011;26355;45.528;9.234;2023-04-07T03:24:57;28.77;;;15.32;;
40669;SDS011;26355;45.528;9.234;2023-04-07T03:27:22;25.65;;;13.98;;
40669;SDS011;26355;45.528;9.234;2023-04-07T03:29:48;26.05;;;14.52;;
40669;SDS011;26355;45.528;9.234;2023-04-07T03:32:15;25.77;;;14.90;;
40669;SDS011;26355;45.528;9.234;2023-04-07T03:34:40;27.02;;;14.35;;
40669;SDS011;26355;45.528;9.234;2023-04-07T03:37:06;27.63;;;14.52;;
40669;SDS011;26355;45.528;9.234;2023-04-07T03:39:32;27.73;;;14.18;;
40669;SDS011;26355;45.528;9.234;2023-04-07T03:42:01;27.65;;;14.30;;
40669;SDS011;26355;45.528;9.234;2023-04-07T03:44:27;25.85;;;14.05;;
40669;SDS011;26355;45.528;9.234;2023-04-07T03:46:52;31.08;;;15.68;;
40669;SDS011;26355;45.528;9.234;2023-04-07T03:49:18;29.42;;;15.75;;
40669;SDS011;26355;45.528;9.234;2023-04-07T03:51:44;29.75;;;14.90;;
40669;SDS011;26355;45.528;9.234;2023-04-07T03:54:09;25.42;;;14.13;;
40669;SDS011;26355;45.528;9.234;2023-04-07T03:56:35;29.17;;;14.68;;
40669;SDS011;26355;45.528;9.234;2023-04-07T03:59:01;30.85;;;15.95;;
40669;SDS011;26355;45.528;9.234;2023-04-07T04:01:27;27.83;;;14.30;;
40669;SDS011;26355;45.528;9.234;2023-04-07T04:03:52;27.77;;;15.13;;
40669;SDS011;26355;45.528;9.234;2023-04-07T04:06:18;27.67;;;14.63;;
40669;SDS011;26355;45.528;9.234;2023-04-07T04:08:43;30.00;;;14.07;;
40669;SDS011;26355;45.528;9.234;2023-04-07T04:11:09;32.10;;;15.95;;
40669;SDS011;26355;45.528;9.234;2023-04-07T04:13:35;27.73;;;14.02;;
40669;SDS011;26355;45.528;9.234;2023-04-07T04:16:00;25.05;;;14.30;;
40669;SDS011;26355;45.528;9.234;2023-04-07T04:18:26;26.55;;;14.38;;
40669;SDS011;26355;45.528;9.234;2023-04-07T04:20:52;25.77;;;13.90;;
40669;SDS011;26355;45.528;9.234;2023-04-07T04:23:17;23.98;;;13.93;;
40669;SDS011;26355;45.528;9.234;2023-04-07T04:25:43;27.20;;;15.52;;
40669;SDS011;26355;45.528;9.234;2023-04-07T04:28:08;27.27;;;14.23;;
40669;SDS011;26355;45.528;9.234;2023-04-07T04:30:34;28.33;;;13.32;;
40669;SDS011;26355;45.528;9.234;2023-04-07T04:33:00;33.60;;;14.60;;
40669;SDS011;26355;45.528;9.234;2023-04-07T04:35:25;27.40;;;14.18;;
40669;SDS011;26355;45.528;9.234;2023-04-07T04:37:51;26.05;;;14.23;;
40669;SDS011;26355;45.528;9.234;2023-04-07T04:40:16;30.55;;;14.85;;
40669;SDS011;26355;45.528;9.234;2023-04-07T04:42:42;25.65;;;14.35;;
40669;SDS011;26355;45.528;9.234;2023-04-07T04:45:08;26.15;;;13.68;;
40669;SDS011;26355;45.528;9.234;2023-04-07T04:47:34;26.65;;;15.35;;
40669;SDS011;26355;45.528;9.234;2023-04-07T04:49:59;26.73;;;14.40;;
40669;SDS011;26355;45.528;9.234;2023-04-07T04:52:25;25.30;;;13.93;;
40669;SDS011;26355;45.528;9.234;2023-04-07T04:54:51;27.85;;;14.57;;
40669;SDS011;26355;45.528;9.234;2023-04-07T04:57:17;28.35;;;14.18;;
40669;SDS011;26355;45.528;9.234;2023-04-07T04:59:43;27.98;;;15.05;;
40669;SDS011;26355;45.528;9.234;2023-04-07T05:02:08;27.83;;;15.15;;
40669;SDS011;26355;45.528;9.234;2023-04-07T05:04:34;29.55;;;15.35;;
40669;SDS011;26355;45.528;9.234;2023-04-07T05:07:00;29.45;;;14.95;;
40669;SDS011;26355;45.528;9.234;2023-04-07T05:09:26;28.17;;;14.90;;
40669;SDS011;26355;45.528;9.234;2023-04-07T05:11:51;29.67;;;15.38;;
40669;SDS011;26355;45.528;9.234;2023-04-07T05:14:17;26.85;;;14.25;;
40669;SDS011;26355;45.528;9.234;2023-04-07T05:16:42;26.48;;;14.38;;
40669;SDS011;26355;45.528;9.234;2023-04-07T05:19:08;31.50;;;14.43;;
40669;SDS011;26355;45.528;9.234;2023-04-07T05:21:33;28.58;;;15.20;;
40669;SDS011;26355;45.528;9.234;2023-04-07T05:23:59;28.50;;;15.30;;
40669;SDS011;26355;45.528;9.234;2023-04-07T05:26:24;29.83;;;14.35;;
40669;SDS011;26355;45.528;9.234;2023-04-07T05:28:51;28.75;;;14.55;;
40669;SDS011;26355;45.528;9.234;2023-04-07T05:31:16;29.25;;;14.93;;
40669;SDS011;26355;45.528;9.234;2023-04-07T05:33:42;30.08;;;15.32;;
40669;SDS011;26355;45.528;9.234;2023-04-07T05:36:07;28.38;;;13.73;;
40669;SDS011;26355;45.528;9.234;2023-04-07T05:38:33;29.48;;;14.38;;
40669;SDS011;26355;45.528;9.234;2023-04-07T05:40:58;26.67;;;14.55;;
40669;SDS011;26355;45.528;9.234;2023-04-07T05:43:24;29.17;;;15.63;;
40669;SDS011;26355;45.528;9.234;2023-04-07T05:45:50;28.25;;;15.90;;
40669;SDS011;26355;45.528;9.234;2023-04-07T05:48:15;32.58;;;14.90;;
40669;SDS011;26355;45.528;9.234;2023-04-07T05:50:41;28.77;;;15.02;;
40669;SDS011;26355;45.528;9.234;2023-04-07T05:53:07;29.00;;;15.23;;
40669;SDS011;26355;45.528;9.234;2023-04-07T05:55:32;31.60;;;15.13;;
40669;SDS011;26355;45.528;9.234;2023-04-07T05:57:58;31.50;;;15.65;;
40669;SDS011;26355;45.528;9.234;2023-04-07T06:00:24;28.50;;;15.00;;
40669;SDS011;26355;45.528;9.234;2023-04-07T06:02:50;29.00;;;15.90;;
40669;SDS011;26355;45.528;9.234;2023-04-07T06:05:16;29.67;;;15.55;;
40669;SDS011;26355;45.528;9.234;2023-04-07T06:07:41;29.85;;;16.67;;
40669;SDS011;26355;45.528;9.234;2023-04-07T06:10:07;28.48;;;16.30;;
40669;SDS011;26355;45.528;9.234;2023-04-07T06:12:33;30.92;;;15.80;;
40669;SDS011;26355;45.528;9.234;2023-04-07T06:14:58;27.83;;;15.40;;
40669;SDS011;26355;45.528;9.234;2023-04-07T06:17:24;30.98;;;16.85;;
40669;SDS011;26355;45.528;9.234;2023-04-07T06:19:49;30.27;;;16.58;;
40669;SDS011;26355;45.528;9.234;2023-04-07T06:22:15;32.17;;;16.27;;
40669;SDS011;26355;45.528;9.234;2023-04-07T06:24:41;30.05;;;15.82;;
40669;SDS011;26355;45.528;9.234;2023-04-07T06:27:06;31.20;;;15.80;;
40669;SDS011;26355;45.528;9.234;2023-04-07T06:29:32;34.17;;;15.75;;
40669;SDS011;26355;45.528;9.234;2023-04-07T06:31:58;35.92;;;17.13;;
40669;SDS011;26355;45.528;9.234;2023-04-07T06:34:24;30.50;;;16.52;;
40669;SDS011;26355;45.528;9.234;2023-04-07T06:36:50;29.88;;;16.65;;
40669;SDS011;26355;45.528;9.234;2023-04-07T06:39:15;27.00;;;15.85;;
40669;SDS011;26355;45.528;9.234;2023-04-07T06:41:41;28.20;;;15.13;;
40669;SDS011;26355;45.528;9.234;2023-04-07T06:44:08;29.23;;;16.15;;
40669;SDS011;26355;45.528;9.234;2023-04-07T06:46:35;31.80;;;16.88;;
40669;SDS011;26355;45.528;9.234;2023-04-07T06:49:00;30.67;;;17.20;;
40669;SDS011;26355;45.528;9.234;2023-04-07T06:51:26;28.50;;;16.73;;
40669;SDS011;26355;45.528;9.234;2023-04-07T06:53:52;30.20;;;16.38;;
40669;SDS011;26355;45.528;9.234;2023-04-07T06:56:17;34.05;;;18.02;;
40669;SDS011;26355;45.528;9.234;2023-04-07T06:58:43;30.02;;;16.65;;
40669;SDS011;26355;45.528;9.234;2023-04-07T07:01:08;39.15;;;16.85;;
40669;SDS011;26355;45.528;9.234;2023-04-07T07:03:34;27.15;;;15.40;;
40669;SDS011;26355;45.528;9.234;2023-04-07T07:06:00;27.58;;;15.27;;
40669;SDS011;26355;45.528;9.234;2023-04-07T07:08:26;31.30;;;16.98;;
40669;SDS011;26355;45.528;9.234;2023-04-07T07:10:53;29.52;;;16.38;;
40669;SDS011;26355;45.528;9.234;2023-04-07T07:13:20;29.90;;;16.27;;
40669;SDS011;26355;45.528;9.234;2023-04-07T07:15:47;29.65;;;16.65;;
40669;SDS011;26355;45.528;9.234;2023-04-07T07:18:14;25.95;;;14.35;;
40669;SDS011;26355;45.528;9.234;2023-04-07T07:20:40;24.20;;;13.60;;
40669;SDS011;26355;45.528;9.234;2023-04-07T07:23:06;26.20;;;14.90;;
40669;SDS011;26355;45.528;9.234;2023-04-07T07:25:32;24.08;;;13.93;;
40669;SDS011;26355;45.528;9.234;2023-04-07T07:27:57;27.50;;;14.10;;
40669;SDS011;26355;45.528;9.234;2023-04-07T07:30:23;26.13;;;13.93;;
40669;SDS011;26355;45.528;9.234;2023-04-07T07:32:49;28.17;;;13.55;;
40669;SDS011;26355;45.528;9.234;2023-04-07T07:35:15;23.70;;;12.55;;
40669;SDS011;26355;45.528;9.234;2023-04-07T07:37:41;24.38;;;14.20;;
40669;SDS011;26355;45.528;9.234;2023-04-07T07:40:08;28.08;;;14.52;;
40669;SDS011;26355;45.528;9.234;2023-04-07T07:42:35;24.02;;;14.13;;
40669;SDS011;26355;45.528;9.234;2023-04-07T07:45:00;27.42;;;15.15;;
40669;SDS011;26355;45.528;9.234;2023-04-07T07:47:26;29.90;;;16.25;;
40669;SDS011;26355;45.528;9.234;2023-04-07T07:49:52;32.47;;;16.98;;
40669;SDS011;26355;45.528;9.234;2023-04-07T07:52:17;26.65;;;14.70;;
40669;SDS011;26355;45.528;9.234;2023-04-07T07:54:44;29.45;;;14.85;;
40669;SDS011;26355;45.528;9.234;2023-04-07T07:57:10;25.58;;;15.85;;
40669;SDS011;26355;45.528;9.234;2023-04-07T07:59:36;28.38;;;15.43;;
40669;SDS011;26355;45.528;9.234;2023-04-07T08:02:02;28.38;;;14.60;;
40669;SDS011;26355;45.528;9.234;2023-04-07T08:04:28;30.65;;;15.20;;
40669;SDS011;26355;45.528;9.234;2023-04-07T08:06:53;28.52;;;14.50;;
40669;SDS011;26355;45.528;9.234;2023-04-07T08:09:19;27.58;;;15.77;;
40669;SDS011;26355;45.528;9.234;2023-04-07T08:11:45;29.65;;;15.35;;
40669;SDS011;26355;45.528;9.234;2023-04-07T08:14:12;25.58;;;14.73;;
40669;SDS011;26355;45.528;9.234;2023-04-07T08:16:38;25.88;;;14.25;;
40669;SDS011;26355;45.528;9.234;2023-04-07T08:19:04;27.90;;;15.27;;
40669;SDS011;26355;45.528;9.234;2023-04-07T08:21:30;32.22;;;15.55;;
40669;SDS011;26355;45.528;9.234;2023-04-07T08:23:56;27.60;;;16.17;;
40669;SDS011;26355;45.528;9.234;2023-04-07T08:26:21;28.67;;;15.32;;
40669;SDS011;26355;45.528;9.234;2023-04-07T08:28:50;27.80;;;15.85;;
40669;SDS011;26355;45.528;9.234;2023-04-07T08:31:16;28.00;;;15.75;;
40669;SDS011;26355;45.528;9.234;2023-04-07T08:33:42;31.25;;;16.67;;
40669;SDS011;26355;45.528;9.234;2023-04-07T08:36:07;24.77;;;14.10;;
40669;SDS011;26355;45.528;9.234;2023-04-07T08:38:33;25.83;;;14.98;;
40669;SDS011;26355;45.528;9.234;2023-04-07T08:41:02;25.50;;;13.40;;
40669;SDS011;26355;45.528;9.234;2023-04-07T08:43:32;30.73;;;16.58;;
40669;SDS011;26355;45.528;9.234;2023-04-07T08:46:00;28.13;;;15.80;;
40669;SDS011;26355;45.528;9.234;2023-04-07T08:48:26;29.52;;;16.80;;
40669;SDS011;26355;45.528;9.234;2023-04-07T08:50:57;28.35;;;16.85;;
40669;SDS011;26355;45.528;9.234;2023-04-07T08:53:32;33.17;;;17.52;;
40669;SDS011;26355;45.528;9.234;2023-04-07T08:56:05;48.33;;;22.30;;
40669;SDS011;26355;45.528;9.234;2023-04-07T08:58:31;27.90;;;14.52;;
40669;SDS011;26355;45.528;9.234;2023-04-07T09:00:57;26.58;;;15.23;;
40669;SDS011;26355;45.528;9.234;2023-04-07T09:03:23;28.08;;;14.98;;
40669;SDS011;26355;45.528;9.234;2023-04-07T09:05:51;27.23;;;15.88;;
40669;SDS011;26355;45.528;9.234;2023-04-07T09:08:16;28.73;;;15.05;;
40669;SDS011;26355;45.528;9.234;2023-04-07T09:10:42;29.67;;;16.23;;
40669;SDS011;26355;45.528;9.234;2023-04-07T09:13:08;26.02;;;15.45;;
40669;SDS011;26355;45.528;9.234;2023-04-07T09:15:33;27.17;;;14.65;;
40669;SDS011;26355;45.528;9.234;2023-04-07T09:17:59;25.38;;;14.63;;
40669;SDS011;26355;45.528;9.234;2023-04-07T09:20:25;27.27;;;15.35;;
40669;SDS011;26355;45.528;9.234;2023-04-07T09:22:50;26.75;;;15.23;;
40669;SDS011;26355;45.528;9.234;2023-04-07T09:30:38;25.88;;;14.57;;
40669;SDS011;26355;45.528;9.234;2023-04-07T09:33:17;24.63;;;14.13;;
40669;SDS011;26355;45.528;9.234;2023-04-07T09:35:53;26.05;;;14.13;;
40669;SDS011;26355;45.528;9.234;2023-04-07T09:38:20;24.95;;;14.32;;
40669;SDS011;26355;45.528;9.234;2023-04-07T09:40:45;24.65;;;13.57;;
40669;SDS011;26355;45.528;9.234;2023-04-07T09:43:16;25.17;;;13.73;;
40669;SDS011;26355;45.528;9.234;2023-04-07T09:45:42;23.50;;;11.38;;
40669;SDS011;26355;45.528;9.234;2023-04-07T09:48:17;22.00;;;10.25;;
40669;SDS011;26355;45.528;9.234;2023-04-07T09:50:44;21.05;;;9.85;;
40669;SDS011;26355;45.528;9.234;2023-04-07T09:53:13;18.85;;;9.52;;
40669;SDS011;26355;45.528;9.234;2023-04-07T09:55:39;21.60;;;10.45;;
40669;SDS011;26355;45.528;9.234;2023-04-07T09:58:06;21.47;;;9.97;;
40669;SDS011;26355;45.528;9.234;2023-04-07T10:00:34;20.35;;;9.63;;
40669;SDS011;26355;45.528;9.234;2023-04-07T10:03:00;20.23;;;9.52;;
40669;SDS011;26355;45.528;9.234;2023-04-07T10:05:28;22.15;;;10.77;;
40669;SDS011;26355;45.528;9.234;2023-04-07T10:07:53;23.25;;;11.02;;
40669;SDS011;26355;45.528;9.234;2023-04-07T10:10:19;19.55;;;9.88;;
40669;SDS011;26355;45.528;9.234;2023-04-07T10:12:45;23.65;;;11.63;;
40669;SDS011;26355;45.528;9.234;2023-04-07T10:15:13;25.88;;;11.65;;
40669;SDS011;26355;45.528;9.234;2023-04-07T10:17:41;18.23;;;8.55;;
40669;SDS011;26355;45.528;9.234;2023-04-07T10:20:12;18.13;;;8.20;;
40669;SDS011;26355;45.528;9.234;2023-04-07T10:22:39;17.90;;;7.82;;
40669;SDS011;26355;45.528;9.234;2023-04-07T10:28:09;17.55;;;5.97;;
40669;SDS011;26355;45.528;9.234;2023-04-07T10:30:30;15.80;;;6.03;;
40669;SDS011;26355;45.528;9.234;2023-04-07T10:32:57;17.55;;;6.63;;
40669;SDS011;26355;45.528;9.234;2023-04-07T10:35:23;19.20;;;7.25;;
40669;SDS011;26355;45.528;9.234;2023-04-07T10:40:37;18.75;;;5.80;;
40669;SDS011;26355;45.528;9.234;2023-04-07T10:43:04;13.57;;;5.07;;
40669;SDS011;26355;45.528;9.234;2023-04-07T10:48:16;18.98;;;6.57;;
40669;SDS011;26355;45.528;9.234;2023-04-07T10:50:45;18.98;;;9.10;;
40669;SDS011;26355;45.528;9.234;2023-04-07T10:53:28;21.00;;;9.60;;
40669;SDS011;26355;45.528;9.234;2023-04-07T10:55:53;18.92;;;8.60;;
40669;SDS011;26355;45.528;9.234;2023-04-07T11:03:21;15.95;;;7.68;;
40669;SDS011;26355;45.528;9.234;2023-04-07T11:05:50;17.95;;;7.40;;
40669;SDS011;26355;45.528;9.234;2023-04-07T11:08:35;17.15;;;6.63;;
40669;SDS011;26355;45.528;9.234;2023-04-07T11:11:02;19.30;;;6.22;;
40669;SDS011;26355;45.528;9.234;2023-04-07T11:13:54;15.63;;;6.28;;
40669;SDS011;26355;45.528;9.234;2023-04-07T11:16:19;15.38;;;5.93;;
40669;SDS011;26355;45.528;9.234;2023-04-07T11:19:02;17.35;;;6.95;;
40669;SDS011;26355;45.528;9.234;2023-04-07T11:21:28;16.30;;;6.75;;
40669;SDS011;26355;45.528;9.234;2023-04-07T11:23:54;18.45;;;6.85;;
40669;SDS011;26355;45.528;9.234;2023-04-07T11:26:20;17.20;;;6.80;;
40669;SDS011;26355;45.528;9.234;2023-04-07T11:31:23;19.70;;;6.93;;
40669;SDS011;26355;45.528;9.234;2023-04-07T11:33:51;17.70;;;7.13;;
40669;SDS011;26355;45.528;9.234;2023-04-07T11:36:34;17.98;;;7.18;;
40669;SDS011;26355;45.528;9.234;2023-04-07T11:39:02;17.73;;;7.80;;
40669;SDS011;26355;45.528;9.234;2023-04-07T11:41:29;20.30;;;8.07;;
40669;SDS011;26355;45.528;9.234;2023-04-07T11:44:09;19.35;;;7.93;;
40669;SDS011;26355;45.528;9.234;2023-04-07T11:46:36;17.25;;;7.63;;
40669;SDS011;26355;45.528;9.234;2023-04-07T11:49:21;18.00;;;7.40;;
40669;SDS011;26355;45.528;9.234;2023-04-07T11:51:48;18.17;;;8.23;;
40669;SDS011;26355;45.528;9.234;2023-04-07T11:54:25;18.73;;;7.72;;
40669;SDS011;26355;45.528;9.234;2023-04-07T11:56:51;18.10;;;7.40;;
40669;SDS011;26355;45.528;9.234;2023-04-07T11:59:20;19.77;;;8.00;;
40669;SDS011;26355;45.528;9.234;2023-04-07T12:01:47;17.08;;;6.53;;
40669;SDS011;26355;45.528;9.234;2023-04-07T12:06:41;18.70;;;7.90;;
40669;SDS011;26355;45.528;9.234;2023-04-07T12:09:07;17.75;;;7.68;;
40669;SDS011;26355;45.528;9.234;2023-04-07T12:11:48;19.65;;;7.80;;
40669;SDS011;26355;45.528;9.234;2023-04-07T12:14:14;17.15;;;7.45;;
40669;SDS011;26355;45.528;9.234;2023-04-07T12:16:40;17.85;;;7.97;;
40669;SDS011;26355;45.528;9.234;2023-04-07T12:19:06;15.65;;;7.03;;
40669;SDS011;26355;45.528;9.234;2023-04-07T12:21:32;17.30;;;7.22;;
40669;SDS011;26355;45.528;9.234;2023-04-07T12:23:57;18.15;;;7.13;;
40669;SDS011;26355;45.528;9.234;2023-04-07T12:26:23;18.10;;;7.45;;
40669;SDS011;26355;45.528;9.234;2023-04-07T12:28:49;17.52;;;7.28;;
40669;SDS011;26355;45.528;9.234;2023-04-07T12:31:15;17.80;;;7.57;;
40669;SDS011;26355;45.528;9.234;2023-04-07T12:33:41;20.25;;;8.57;;
40669;SDS011;26355;45.528;9.234;2023-04-07T12:36:06;21.35;;;8.90;;
40669;SDS011;26355;45.528;9.234;2023-04-07T12:38:32;19.30;;;9.20;;
40669;SDS011;26355;45.528;9.234;2023-04-07T12:40:58;22.05;;;9.23;;
40669;SDS011;26355;45.528;9.234;2023-04-07T12:43:27;20.10;;;9.50;;
40669;SDS011;26355;45.528;9.234;2023-04-07T12:45:54;21.70;;;9.20;;
40669;SDS011;26355;45.528;9.234;2023-04-07T12:48:20;24.42;;;10.13;;
40669;SDS011;26355;45.528;9.234;2023-04-07T12:50:45;20.25;;;9.68;;
40669;SDS011;26355;45.528;9.234;2023-04-07T12:53:11;23.20;;;11.23;;
40669;SDS011;26355;45.528;9.234;2023-04-07T12:55:37;22.27;;;10.85;;
40669;SDS011;26355;45.528;9.234;2023-04-07T12:58:02;22.30;;;11.05;;
40669;SDS011;26355;45.528;9.234;2023-04-07T13:00:28;22.08;;;10.95;;
40669;SDS011;26355;45.528;9.234;2023-04-07T13:02:54;23.98;;;10.88;;
40669;SDS011;26355;45.528;9.234;2023-04-07T13:05:20;23.13;;;10.25;;
40669;SDS011;26355;45.528;9.234;2023-04-07T13:07:47;24.05;;;12.23;;
40669;SDS011;26355;45.528;9.234;2023-04-07T13:10:13;23.15;;;11.80;;
40669;SDS011;26355;45.528;9.234;2023-04-07T13:12:38;26.25;;;13.55;;
40669;SDS011;26355;45.528;9.234;2023-04-07T13:15:06;24.30;;;12.93;;
40669;SDS011;26355;45.528;9.234;2023-04-07T13:17:32;25.75;;;12.02;;
40669;SDS011;26355;45.528;9.234;2023-04-07T13:20:00;21.83;;;11.05;;
40669;SDS011;26355;45.528;9.234;2023-04-07T13:24:53;23.85;;;11.18;;
40669;SDS011;26355;45.528;9.234;2023-04-07T13:27:18;20.92;;;10.82;;
40669;SDS011;26355;45.528;9.234;2023-04-07T13:29:45;20.83;;;9.65;;
40669;SDS011;26355;45.528;9.234;2023-04-07T13:32:11;20.60;;;10.07;;
40669;SDS011;26355;45.528;9.234;2023-04-07T13:34:37;19.70;;;9.70;;
40669;SDS011;26355;45.528;9.234;2023-04-07T13:37:03;19.67;;;10.15;;
40669;SDS011;26355;45.528;9.234;2023-04-07T13:39:29;20.60;;;10.25;;
40669;SDS011;26355;45.528;9.234;2023-04-07T13:41:55;19.75;;;9.48;;
40669;SDS011;26355;45.528;9.234;2023-04-07T13:44:22;19.83;;;9.57;;
40669;SDS011;26355;45.528;9.234;2023-04-07T13:46:48;22.87;;;10.33;;
40669;SDS011;26355;45.528;9.234;2023-04-07T13:49:14;22.52;;;10.77;;
40669;SDS011;26355;45.528;9.234;2023-04-07T13:51:40;20.48;;;9.75;;
40669;SDS011;26355;45.528;9.234;2023-04-07T13:54:06;19.83;;;9.15;;
40669;SDS011;26355;45.528;9.234;2023-04-07T13:56:31;18.17;;;9.05;;
40669;SDS011;26355;45.528;9.234;2023-04-07T13:58:59;19.55;;;8.70;;
40669;SDS011;26355;45.528;9.234;2023-04-07T14:01:25;19.38;;;9.35;;
40669;SDS011;26355;45.528;9.234;2023-04-07T14:03:51;21.15;;;9.30;;
40669;SDS011;26355;45.528;9.234;2023-04-07T14:06:17;19.80;;;8.88;;
40669;SDS011;26355;45.528;9.234;2023-04-07T14:08:46;20.25;;;9.18;;
40669;SDS011;26355;45.528;9.234;2023-04-07T14:11:15;20.83;;;9.02;;
40669;SDS011;26355;45.528;9.234;2023-04-07T14:13:42;20.83;;;9.55;;
40669;SDS011;26355;45.528;9.234;2023-04-07T14:16:07;18.25;;;8.95;;
40669;SDS011;26355;45.528;9.234;2023-04-07T14:18:33;20.27;;;8.73;;
40669;SDS011;26355;45.528;9.234;2023-04-07T14:20:58;19.00;;;8.68;;
40669;SDS011;26355;45.528;9.234;2023-04-07T14:23:25;18.23;;;9.37;;
40669;SDS011;26355;45.528;9.234;2023-04-07T14:25:51;19.85;;;7.45;;
40669;SDS011;26355;45.528;9.234;2023-04-07T14:28:16;18.75;;;7.45;;
40669;SDS011;26355;45.528;9.234;2023-04-07T14:30:42;19.42;;;7.88;;
40669;SDS011;26355;45.528;9.234;2023-04-07T14:33:08;18.35;;;7.90;;
40669;SDS011;26355;45.528;9.234;2023-04-07T14:35:35;17.75;;;7.93;;
40669;SDS011;26355;45.528;9.234;2023-04-07T14:40:27;17.63;;;6.68;;
40669;SDS011;26355;45.528;9.234;2023-04-07T14:42:52;22.88;;;9.85;;
40669;SDS011;26355;45.528;9.234;2023-04-07T14:45:18;27.77;;;13.63;;
40669;SDS011;26355;45.528;9.234;2023-04-07T14:47:43;26.92;;;14.23;;
40669;SDS011;26355;45.528;9.234;2023-04-07T14:50:09;26.90;;;14.85;;
40669;SDS011;26355;45.528;9.234;2023-04-07T14:52:35;24.35;;;15.43;;
40669;SDS011;26355;45.528;9.234;2023-04-07T14:55:01;24.35;;;14.52;;
40669;SDS011;26355;45.528;9.234;2023-04-07T14:57:26;28.52;;;15.25;;
40669;SDS011;26355;45.528;9.234;2023-04-07T14:59:52;27.48;;;15.23;;